createdAt,value
2017-10-14T00:01:03.552Z,13.32
2017-10-14T00:03:30.082Z,13.00
2017-10-14T00:05:56.552Z,13.38
2017-10-14T00:08:23.202Z,11.88
2017-10-14T00:10:49.669Z,12.43
2017-10-14T00:13:16.193Z,13.45
2017-10-14T00:15:42.713Z,12.35
2017-10-14T00:18:09.181Z,11.80
2017-10-14T00:20:35.629Z,11.75
2017-10-14T00:23:02.766Z,12.85
2017-10-14T00:25:29.312Z,12.65
2017-10-14T00:27:56.587Z,14.95
2017-10-14T00:30:23.066Z,11.93
2017-10-14T00:32:49.559Z,13.65
2017-10-14T00:35:16.063Z,13.15
2017-10-14T00:37:42.619Z,11.60
2017-10-14T00:40:09.175Z,13.20
2017-10-14T00:42:36.365Z,12.15
2017-10-14T00:45:02.907Z,12.98
2017-10-14T00:47:29.465Z,12.90
2017-10-14T00:49:56.738Z,12.40
2017-10-14T00:52:23.949Z,14.15
2017-10-14T00:54:50.389Z,12.88
2017-10-14T00:57:16.900Z,11.65
2017-10-14T00:59:43.423Z,11.50
2017-10-14T01:02:09.937Z,11.55
2017-10-14T01:04:37.115Z,13.57
2017-10-14T01:07:03.531Z,13.00
2017-10-14T01:09:30.047Z,12.35
2017-10-14T01:11:56.583Z,12.27
2017-10-14T01:14:23.097Z,10.90
2017-10-14T01:16:49.585Z,13.98
2017-10-14T01:19:16.871Z,13.73
2017-10-14T01:21:43.434Z,12.30
2017-10-14T01:24:10.090Z,13.80
2017-10-14T01:26:37.320Z,13.30
2017-10-14T01:29:04.560Z,16.02
2017-10-14T01:31:32.016Z,11.80
2017-10-14T01:33:59.248Z,11.68
2017-10-14T01:36:25.837Z,12.18
2017-10-14T01:38:53.124Z,13.30
2017-10-14T01:41:20.501Z,11.87
2017-10-14T01:43:47.877Z,12.23
2017-10-14T01:46:14.553Z,13.05
2017-10-14T01:48:41.098Z,12.25
2017-10-14T01:51:08.371Z,10.90
2017-10-14T01:53:35.613Z,12.55
2017-10-14T01:56:02.086Z,13.20
2017-10-14T01:58:29.365Z,13.40
2017-10-14T02:00:56.649Z,12.73
2017-10-14T02:03:23.904Z,14.10
2017-10-14T02:05:51.201Z,12.07
2017-10-14T02:08:17.757Z,10.85
2017-10-14T02:10:44.327Z,11.70
2017-10-14T02:13:10.873Z,11.52
2017-10-14T02:15:38.132Z,11.38
2017-10-14T02:18:05.422Z,12.00
2017-10-14T02:20:32.696Z,11.23
2017-10-14T02:22:59.888Z,12.43
2017-10-14T02:25:26.426Z,10.40
2017-10-14T02:27:53.802Z,11.07
2017-10-14T02:30:20.989Z,11.95
2017-10-14T02:32:47.535Z,11.85
2017-10-14T02:35:14.095Z,11.20
2017-10-14T02:37:40.536Z,11.32
2017-10-14T02:40:07.827Z,11.52
2017-10-14T02:42:34.382Z,11.47
2017-10-14T02:45:01.533Z,11.00
2017-10-14T02:47:27.964Z,11.98
2017-10-14T02:49:54.570Z,11.18
2017-10-14T02:52:21.069Z,11.07
2017-10-14T02:54:47.521Z,12.55
2017-10-14T02:57:13.985Z,11.07
2017-10-14T02:59:40.497Z,11.20
2017-10-14T03:02:06.957Z,10.82
2017-10-14T03:04:33.409Z,10.98
2017-10-14T03:07:00.687Z,11.65
2017-10-14T03:09:27.241Z,10.25
2017-10-14T03:11:53.667Z,10.90
2017-10-14T03:14:20.127Z,11.38
2017-10-14T03:16:46.679Z,10.60
2017-10-14T03:19:14.802Z,10.30
2017-10-14T03:21:42.008Z,10.55
2017-10-14T03:24:08.534Z,10.98
2017-10-14T03:26:35.727Z,10.60
2017-10-14T03:29:02.218Z,10.57
2017-10-14T03:31:28.927Z,9.27
2017-10-14T03:33:56.200Z,8.65
2017-10-14T03:36:22.761Z,9.30
2017-10-14T03:38:50.034Z,8.70
2017-10-14T03:41:16.510Z,8.27
2017-10-14T03:43:43.543Z,8.77
2017-10-14T03:46:10.715Z,8.77
2017-10-14T03:48:37.212Z,8.13
2017-10-14T03:51:03.750Z,8.90
2017-10-14T03:53:30.221Z,8.60
2017-10-14T03:55:56.691Z,8.60
2017-10-14T03:58:23.219Z,9.93
2017-10-14T04:00:49.878Z,10.40
2017-10-14T04:03:17.073Z,8.70
2017-10-14T04:05:43.608Z,8.20
2017-10-14T04:08:10.169Z,8.13
2017-10-14T04:10:36.691Z,8.68
2017-10-14T04:13:03.181Z,7.72
2017-10-14T04:15:30.505Z,8.20
2017-10-14T04:17:57.013Z,9.52
2017-10-14T04:20:24.321Z,8.87
2017-10-14T04:22:50.809Z,10.38
2017-10-14T04:25:17.311Z,8.18
2017-10-14T04:27:43.861Z,8.68
2017-10-14T04:30:11.749Z,8.68
2017-10-14T04:32:38.948Z,8.30
2017-10-14T04:35:05.480Z,8.65
2017-10-14T04:37:32.671Z,7.95
2017-10-14T04:39:59.210Z,8.70
2017-10-14T04:42:26.434Z,8.40
2017-10-14T04:44:52.942Z,12.50
2017-10-14T04:47:20.215Z,10.63
2017-10-14T04:49:47.490Z,8.07
2017-10-14T04:52:13.947Z,8.50
2017-10-14T04:54:41.123Z,10.10
2017-10-14T04:57:07.678Z,9.93
2017-10-14T04:59:34.869Z,8.20
2017-10-14T05:02:01.360Z,8.15
2017-10-14T05:04:27.819Z,8.75
2017-10-14T05:06:54.784Z,10.35
2017-10-14T05:09:21.287Z,8.73
2017-10-14T05:11:48.509Z,8.75
2017-10-14T05:14:15.119Z,8.25
2017-10-14T05:16:41.560Z,8.93
2017-10-14T05:19:08.965Z,9.82
2017-10-14T05:21:35.510Z,8.90
2017-10-14T05:24:02.785Z,10.70
2017-10-14T05:26:30.061Z,9.55
2017-10-14T05:28:57.334Z,8.87
2017-10-14T05:31:23.774Z,8.32
2017-10-14T05:33:50.991Z,9.50
2017-10-14T05:36:17.403Z,10.43
2017-10-14T05:38:44.698Z,8.30
2017-10-14T05:41:11.972Z,8.32
2017-10-14T05:43:38.436Z,8.05
2017-10-14T05:46:04.983Z,8.32
2017-10-14T05:48:31.482Z,8.98
2017-10-14T05:50:57.998Z,7.95
2017-10-14T05:53:25.472Z,9.55
2017-10-14T05:55:52.641Z,9.02
2017-10-14T05:58:19.838Z,10.73
2017-10-14T06:00:46.381Z,8.38
2017-10-14T06:03:12.938Z,9.25
2017-10-14T06:05:40.755Z,8.10
2017-10-14T06:08:07.208Z,8.70
2017-10-14T06:10:33.738Z,8.63
2017-10-14T06:13:01.011Z,9.27
2017-10-14T06:15:28.272Z,10.40
2017-10-14T06:17:55.664Z,10.98
2017-10-14T06:20:22.141Z,12.05
2017-10-14T06:22:48.649Z,15.93
2017-10-14T06:25:15.911Z,19.27
2017-10-14T06:27:42.513Z,16.23
2017-10-14T06:30:09.761Z,14.68
2017-10-14T06:32:36.352Z,16.67
2017-10-14T06:35:02.916Z,15.75
2017-10-14T06:37:29.462Z,13.40
2017-10-14T06:39:56.125Z,11.80
2017-10-14T06:42:22.683Z,12.80
2017-10-14T06:44:49.182Z,11.20
2017-10-14T06:47:15.673Z,11.73
2017-10-14T06:49:42.212Z,8.68
2017-10-14T06:52:08.810Z,10.00
2017-10-14T06:54:36.099Z,8.55
2017-10-14T06:57:02.749Z,7.85
2017-10-14T06:59:29.407Z,7.30
2017-10-14T07:01:56.071Z,7.60
2017-10-14T07:04:23.360Z,10.07
2017-10-14T07:06:49.879Z,8.30
2017-10-14T07:09:17.280Z,7.03
2017-10-14T07:11:43.842Z,9.48
2017-10-14T07:14:10.365Z,10.00
2017-10-14T07:16:37.668Z,6.60
2017-10-14T07:19:05.355Z,8.18
2017-10-14T07:21:31.911Z,7.10
2017-10-14T07:23:58.472Z,7.40
2017-10-14T07:26:26.048Z,6.87
2017-10-14T07:28:53.326Z,7.32
2017-10-14T07:31:19.985Z,8.00
2017-10-14T07:33:46.542Z,7.72
2017-10-14T07:36:13.920Z,8.90
2017-10-14T07:38:41.161Z,8.93
2017-10-14T07:41:07.666Z,8.75
2017-10-14T07:43:34.207Z,7.90
2017-10-14T07:46:01.586Z,9.43
2017-10-14T07:48:28.248Z,8.60
2017-10-14T07:50:54.803Z,8.93
2017-10-14T07:53:21.365Z,8.27
2017-10-14T07:55:48.741Z,8.77
2017-10-14T07:58:15.767Z,8.23
2017-10-14T08:00:42.469Z,9.07
2017-10-14T08:03:09.032Z,7.70
2017-10-14T08:05:35.555Z,10.50
2017-10-14T08:08:02.061Z,8.90
2017-10-14T08:10:28.600Z,10.27
2017-10-14T08:12:55.799Z,8.00
